createdAt,value
2023-05-13T00:00:23.653Z,20.75
2023-05-13T00:01:26.451Z,20.25
2023-05-13T00:02:28.928Z,19.00
2023-05-13T00:03:30.487Z,21.50
2023-05-13T00:04:32.945Z,18.50
2023-05-13T00:05:34.716Z,20.25
2023-05-13T00:06:38.597Z,23.75
2023-05-13T00:07:41.563Z,20.50
2023-05-13T00:08:44.022Z,19.25
2023-05-13T00:09:45.494Z,22.75
2023-05-13T00:10:48.138Z,21.50
2023-05-13T00:11:49.559Z,20.25
2023-05-13T00:12:52.155Z,21.00
2023-05-13T00:13:53.581Z,20.75
2023-05-13T00:14:55.960Z,21.50
2023-05-13T00:15:57.668Z,22.00
2023-05-13T00:17:02.094Z,20.75
2023-05-13T00:18:03.645Z,21.50
2023-05-13T00:19:06.321Z,22.25
2023-05-13T00:20:08.319Z,22.50
2023-05-13T00:21:11.107Z,18.25
2023-05-13T00:22:13.884Z,23.00
2023-05-13T00:23:16.311Z,21.00
2023-05-13T00:24:17.816Z,21.00
2023-05-13T00:25:20.206Z,18.50
2023-05-13T00:26:22.235Z,23.00
2023-05-13T00:27:24.664Z,20.25
2023-05-13T00:28:26.108Z,21.50
2023-05-13T00:29:28.496Z,23.00
2023-05-13T00:30:29.927Z,21.25
2023-05-13T00:31:32.562Z,22.50
2023-05-13T00:32:34.272Z,22.25
2023-05-13T00:33:36.764Z,22.25
2023-05-13T00:34:38.200Z,21.50
2023-05-13T00:35:40.611Z,17.50
2023-05-13T00:36:42.123Z,24.50
2023-05-13T00:37:48.657Z,22.75
2023-05-13T00:38:50.082Z,20.50
2023-05-13T00:39:52.549Z,22.00
2023-05-13T00:40:54.017Z,19.75
2023-05-13T00:41:56.749Z,22.00
2023-05-13T00:42:58.179Z,19.50
2023-05-13T00:44:01.036Z,21.00
2023-05-13T00:45:02.480Z,20.25
2023-05-13T00:46:04.904Z,21.25
2023-05-13T00:47:06.997Z,20.50
2023-05-13T00:48:09.557Z,20.75
2023-05-13T00:49:11.014Z,18.75
2023-05-13T00:50:13.814Z,21.00
2023-05-13T00:51:15.292Z,23.00
2023-05-13T00:52:18.091Z,19.00
2023-05-13T00:53:20.908Z,21.00
2023-05-13T00:54:23.327Z,23.50
2023-05-13T00:55:24.877Z,19.50
2023-05-13T00:56:27.313Z,25.75
2023-05-13T00:57:29.205Z,19.75
2023-05-13T00:58:31.604Z,21.25
2023-05-13T00:59:33.048Z,21.50
2023-05-13T01:00:36.032Z,25.00
2023-05-13T01:01:38.789Z,22.00
2023-05-13T01:02:43.148Z,20.00
2023-05-13T01:03:46.302Z,22.00
2023-05-13T01:04:51.323Z,21.50
2023-05-13T01:05:54.238Z,21.50
2023-05-13T01:06:58.404Z,22.00
2023-05-13T01:08:02.593Z,24.25
2023-05-13T01:09:07.908Z,22.25
2023-05-13T01:10:11.244Z,21.50
2023-05-13T01:11:14.686Z,21.25
2023-05-13T01:12:19.879Z,21.75
2023-05-13T01:13:24.244Z,23.50
2023-05-13T01:14:27.491Z,20.75
2023-05-13T01:15:29.867Z,20.75
2023-05-13T01:16:31.647Z,25.00
2023-05-13T01:17:34.973Z,19.50
2023-05-13T01:18:37.306Z,20.75
2023-05-13T01:19:40.402Z,25.00
2023-05-13T01:20:42.497Z,20.25
2023-05-13T01:21:46.219Z,24.00
2023-05-13T01:22:47.643Z,21.25
2023-05-13T01:23:50.319Z,20.50
2023-05-13T01:24:51.744Z,23.25
2023-05-13T01:25:54.117Z,20.25
2023-05-13T01:26:55.525Z,20.25
2023-05-13T01:27:57.925Z,20.50
2023-05-13T01:28:59.435Z,22.00
2023-05-13T01:30:01.812Z,23.50
2023-05-13T01:31:03.276Z,29.00
2023-05-13T01:32:06.082Z,24.75
2023-05-13T01:33:07.531Z,22.25
2023-05-13T01:34:11.468Z,22.75
2023-05-13T01:35:12.878Z,24.00
2023-05-13T01:36:15.308Z,24.75
2023-05-13T01:37:18.111Z,24.00
2023-05-13T01:38:20.774Z,25.00
2023-05-13T01:39:22.510Z,21.75
2023-05-13T01:41:32.426Z,25.75
2023-05-13T01:42:35.324Z,24.00
2023-05-13T01:43:36.748Z,24.50
2023-05-13T01:44:39.268Z,28.75
2023-05-13T01:45:41.212Z,24.75
2023-05-13T01:46:43.804Z,28.25
2023-05-13T01:47:45.347Z,28.50
2023-05-13T01:48:47.743Z,29.00
2023-05-13T01:49:49.235Z,30.00
2023-05-13T01:50:52.529Z,26.00
2023-05-13T01:51:53.966Z,28.50
2023-05-13T01:52:58.230Z,27.75
2023-05-13T01:53:59.641Z,23.50
2023-05-13T01:55:02.078Z,24.75
2023-05-13T01:56:03.754Z,25.50
2023-05-13T01:57:06.311Z,27.25
2023-05-13T01:58:07.714Z,28.50
2023-05-13T01:59:10.226Z,27.25
2023-05-13T02:00:13.186Z,26.75
2023-05-13T02:01:14.617Z,27.75
2023-05-13T02:02:17.063Z,27.25
2023-05-13T02:03:18.754Z,25.50
2023-05-13T02:04:21.402Z,29.25
2023-05-13T02:05:23.193Z,23.25
2023-05-13T02:06:25.646Z,24.50
2023-05-13T02:07:27.036Z,23.00
2023-05-13T02:08:30.981Z,27.50
2023-05-13T02:09:32.424Z,23.75
2023-05-13T02:10:34.802Z,25.50
2023-05-13T02:11:36.211Z,28.75
2023-05-13T02:12:38.604Z,24.00
2023-05-13T02:13:40.024Z,27.50
2023-05-13T02:14:42.417Z,28.25
2023-05-13T02:15:44.093Z,23.00
2023-05-13T02:16:46.532Z,20.75
2023-05-13T02:17:48.085Z,23.00
2023-05-13T02:18:50.607Z,21.75
2023-05-13T02:19:52.106Z,19.75
2023-05-13T02:20:54.497Z,21.00
2023-05-13T02:21:56.116Z,24.75
2023-05-13T02:22:58.861Z,18.75
2023-05-13T02:24:01.672Z,17.00
2023-05-13T02:25:04.393Z,22.25
2023-05-13T02:26:05.876Z,24.50
2023-05-13T02:27:08.322Z,19.25
2023-05-13T02:28:10.086Z,22.75
2023-05-13T02:29:12.486Z,20.50
2023-05-13T02:30:14.005Z,21.00
2023-05-13T02:31:16.421Z,19.25
2023-05-13T02:32:17.869Z,21.75
2023-05-13T02:33:20.354Z,19.75
2023-05-13T02:34:21.758Z,20.25
2023-05-13T02:35:25.348Z,23.25
2023-05-13T02:36:26.792Z,20.00
2023-05-13T02:37:29.254Z,22.25
2023-05-13T02:38:30.816Z,18.50
2023-05-13T02:39:34.577Z,21.50
2023-05-13T02:40:36.013Z,19.00
2023-05-13T02:41:38.417Z,21.25
2023-05-13T02:42:39.937Z,17.00
2023-05-13T02:43:43.009Z,22.25
2023-05-13T02:44:44.420Z,20.75
2023-05-13T02:45:46.924Z,22.75
2023-05-13T02:46:48.359Z,18.50
2023-05-13T02:47:50.834Z,19.25
2023-05-13T02:48:52.322Z,19.25
2023-05-13T02:49:55.729Z,23.00
2023-05-13T02:50:57.152Z,20.00
2023-05-13T02:51:59.561Z,23.75
2023-05-13T02:53:01.125Z,24.75
2023-05-13T02:54:03.750Z,22.75
2023-05-13T02:55:08.424Z,21.00
2023-05-13T02:56:10.825Z,22.25
2023-05-13T02:57:12.291Z,19.75
2023-05-13T02:58:14.667Z,23.25
2023-05-13T02:59:16.160Z,24.00
2023-05-13T03:00:18.975Z,20.00
2023-05-13T03:01:21.500Z,23.00
2023-05-13T03:02:23.004Z,20.00
2023-05-13T03:03:25.618Z,19.00
2023-05-13T03:04:27.128Z,19.25
2023-05-13T03:05:29.974Z,22.00
2023-05-13T03:06:32.090Z,22.25
2023-05-13T03:07:34.463Z,22.00
2023-05-13T03:08:36.116Z,19.00
2023-05-13T03:09:39.195Z,23.50
2023-05-13T03:10:41.983Z,20.50
2023-05-13T03:11:44.370Z,22.00
2023-05-13T03:12:46.031Z,22.25
2023-05-13T03:13:48.428Z,26.00
2023-05-13T03:14:49.852Z,21.25
2023-05-13T03:15:52.511Z,24.50
2023-05-13T03:16:53.951Z,25.25
2023-05-13T03:17:57.842Z,24.75
2023-05-13T03:18:59.392Z,22.25
2023-05-13T03:20:01.857Z,25.75
2023-05-13T03:21:03.373Z,22.00
2023-05-13T03:22:05.966Z,22.25
2023-05-13T03:23:07.454Z,20.25
2023-05-13T03:24:09.844Z,23.25
2023-05-13T03:25:11.260Z,18.00
2023-05-13T03:26:14.979Z,22.00
2023-05-13T03:27:16.430Z,18.25
2023-05-13T03:28:18.833Z,18.25
2023-05-13T03:29:20.462Z,22.25
2023-05-13T03:30:23.112Z,19.00
2023-05-13T03:31:25.025Z,21.75
2023-05-13T03:32:30.550Z,19.00
2023-05-13T03:33:32.249Z,23.00
2023-05-13T03:34:36.238Z,19.75
2023-05-13T03:35:38.473Z,20.75
2023-05-13T03:36:40.866Z,20.00
2023-05-13T03:37:42.319Z,22.25
2023-05-13T03:38:44.726Z,22.75
2023-05-13T03:39:46.138Z,23.25
2023-05-13T03:40:48.519Z,22.00
2023-05-13T03:41:51.285Z,19.50
2023-05-13T03:42:53.740Z,23.25
2023-05-13T03:43:55.257Z,21.50
2023-05-13T03:44:58.015Z,22.50
2023-05-13T03:45:59.401Z,23.50
2023-05-13T03:47:01.870Z,28.50
2023-05-13T03:48:03.678Z,22.75
2023-05-13T03:49:06.088Z,22.00
2023-05-13T03:50:08.348Z,24.75
2023-05-13T03:51:10.862Z,19.50
2023-05-13T03:52:12.299Z,21.25
2023-05-13T03:53:14.683Z,22.75
2023-05-13T03:54:16.089Z,21.50
2023-05-13T03:55:18.454Z,21.50
2023-05-13T03:56:19.927Z,23.00
2023-05-13T03:57:23.684Z,21.50
2023-05-13T03:58:25.104Z,17.50
2023-05-13T03:59:27.475Z,20.75
2023-05-13T04:00:28.885Z,18.50
2023-05-13T04:01:31.279Z,22.50
2023-05-13T04:02:32.798Z,23.25
2023-05-13T04:03:35.300Z,22.25
2023-05-13T04:04:36.839Z,22.50
2023-05-13T04:05:39.223Z,21.25
2023-05-13T04:06:40.684Z,20.50
2023-05-13T04:07:43.069Z,20.50
2023-05-13T04:08:44.572Z,19.00
2023-05-13T04:09:46.940Z,20.25
2023-05-13T04:10:48.371Z,24.25
2023-05-13T04:11:51.131Z,18.75
2023-05-13T04:12:53.897Z,22.25
2023-05-13T04:13:56.287Z,19.00
2023-05-13T04:14:57.733Z,21.75
2023-05-13T04:16:00.126Z,21.25
2023-05-13T04:17:01.573Z,19.50
2023-05-13T04:18:04.149Z,24.50
2023-05-13T04:19:05.679Z,23.00
2023-05-13T04:20:08.695Z,23.50
2023-05-13T04:21:10.117Z,25.00
2023-05-13T04:22:12.493Z,24.00
2023-05-13T04:23:13.892Z,30.00
2023-05-13T04:24:16.662Z,29.75
2023-05-13T04:25:18.134Z,29.25
2023-05-13T04:26:21.602Z,26.25
2023-05-13T04:27:23.546Z,22.50
2023-05-13T04:28:27.288Z,22.25
2023-05-13T04:29:28.712Z,29.00
2023-05-13T04:30:31.095Z,22.25
2023-05-13T04:31:32.585Z,25.25
2023-05-13T04:32:35.127Z,25.25
2023-05-13T04:33:36.575Z,23.00
2023-05-13T04:34:38.954Z,32.75
2023-05-13T04:35:40.416Z,34.00
2023-05-13T04:36:42.812Z,28.00
2023-05-13T04:37:44.692Z,27.75
2023-05-13T04:38:47.094Z,28.25
2023-05-13T04:39:48.531Z,26.75
2023-05-13T04:40:50.945Z,33.50
2023-05-13T04:41:52.357Z,36.00
2023-05-13T04:42:55.468Z,39.50
2023-05-13T04:43:58.293Z,36.25
2023-05-13T04:45:00.671Z,34.75
2023-05-13T04:46:02.108Z,33.75
2023-05-13T04:47:04.532Z,29.75
2023-05-13T04:48:06.312Z,29.00
2023-05-13T04:49:08.721Z,26.75
2023-05-13T04:50:10.836Z,25.50
2023-05-13T04:51:13.557Z,26.50
2023-05-13T04:52:15.004Z,21.50
2023-05-13T04:53:17.392Z,26.50
2023-05-13T04:54:18.779Z,26.50
2023-05-13T04:55:21.225Z,34.00
2023-05-13T04:56:22.617Z,32.75
2023-05-13T04:57:25.113Z,32.50
2023-05-13T04:58:26.748Z,32.50
2023-05-13T04:59:31.014Z,38.00
2023-05-13T05:00:32.473Z,34.25
2023-05-13T05:01:34.912Z,33.75
2023-05-13T05:02:36.414Z,31.50
2023-05-13T05:03:38.912Z,23.50
2023-05-13T05:04:40.337Z,30.00
2023-05-13T05:05:42.805Z,30.75
2023-05-13T05:06:44.233Z,25.75
2023-05-13T05:07:46.708Z,27.00
2023-05-13T05:08:48.125Z,24.25
2023-05-13T05:09:50.612Z,23.25
2023-05-13T05:10:52.020Z,30.50
2023-05-13T05:11:54.425Z,35.00
2023-05-13T05:12:55.882Z,36.00
2023-05-13T05:13:58.245Z,38.75
2023-05-13T05:15:01.041Z,36.75
2023-05-13T05:16:03.422Z,33.25
2023-05-13T05:17:04.873Z,33.25
2023-05-13T05:18:07.397Z,25.75
2023-05-13T05:19:08.913Z,32.50
2023-05-13T05:20:11.956Z,25.50
2023-05-13T05:21:13.383Z,26.75
2023-05-13T05:22:15.767Z,30.75
2023-05-13T05:23:17.173Z,36.00
2023-05-13T05:24:19.605Z,37.25
2023-05-13T05:25:21.129Z,30.75
2023-05-13T05:26:23.531Z,32.50
2023-05-13T05:27:24.971Z,37.25
2023-05-13T05:28:27.401Z,35.00
2023-05-13T05:29:28.874Z,36.75
2023-05-13T05:30:39.229Z,41.00
2023-05-13T05:31:40.975Z,37.00
2023-05-13T05:32:43.446Z,37.75
2023-05-13T05:33:44.868Z,34.25
2023-05-13T05:34:47.249Z,43.75
2023-05-13T05:35:48.714Z,42.00
2023-05-13T05:36:51.118Z,35.50
2023-05-13T05:37:52.668Z,39.75
2023-05-13T05:38:55.097Z,40.75
2023-05-13T05:39:56.625Z,40.50
2023-05-13T05:40:59.009Z,35.25
2023-05-13T05:42:00.874Z,38.50
2023-05-13T05:43:03.294Z,37.75
2023-05-13T05:44:04.836Z,36.75
2023-05-13T05:45:07.708Z,36.75
2023-05-13T05:46:11.046Z,37.00
2023-05-13T05:47:13.504Z,35.50
2023-05-13T05:48:14.921Z,37.00
2023-05-13T05:49:17.401Z,37.00
2023-05-13T05:50:19.037Z,33.75
2023-05-13T05:51:21.552Z,37.75
2023-05-13T05:52:22.989Z,34.00
2023-05-13T05:53:25.434Z,30.50
2023-05-13T05:54:27.094Z,31.75
2023-05-13T05:55:29.593Z,36.25
2023-05-13T05:56:31.009Z,32.00
2023-05-13T05:57:33.434Z,33.25
2023-05-13T05:58:34.913Z,34.50
2023-05-13T05:59:37.287Z,35.75
2023-05-13T06:00:38.735Z,33.00
2023-05-13T06:01:42.495Z,29.00
2023-05-13T06:02:44.025Z,34.25
2023-05-13T06:03:46.781Z,29.25
2023-05-13T06:04:48.388Z,35.25
2023-05-13T06:05:50.925Z,32.25
2023-05-13T06:06:52.432Z,32.25
2023-05-13T06:07:54.851Z,28.50
2023-05-13T06:08:56.281Z,29.50
2023-05-13T06:09:58.664Z,31.50
2023-05-13T06:11:00.220Z,29.50
2023-05-13T06:12:02.637Z,32.25
2023-05-13T06:13:04.132Z,26.75
2023-05-13T06:14:06.537Z,31.25
2023-05-13T06:15:10.618Z,27.75
2023-05-13T06:16:13.518Z,34.50
2023-05-13T06:17:16.343Z,29.25
2023-05-13T06:18:19.008Z,29.50
2023-05-13T06:19:20.560Z,28.50
2023-05-13T06:20:23.442Z,29.50
2023-05-13T06:21:25.003Z,28.50
2023-05-13T06:22:27.416Z,30.75
2023-05-13T06:23:28.874Z,27.75
2023-05-13T06:24:31.274Z,25.50
2023-05-13T06:25:32.833Z,30.25
2023-05-13T06:26:35.239Z,26.25
2023-05-13T06:27:36.683Z,22.75
2023-05-13T06:28:39.105Z,26.25
2023-05-13T06:29:40.586Z,27.50
2023-05-13T06:30:42.979Z,30.00
2023-05-13T06:31:44.517Z,26.50
2023-05-13T06:33:00.217Z,26.75
2023-05-13T06:34:04.288Z,35.00
2023-05-13T06:35:05.992Z,32.50
2023-05-13T06:36:09.357Z,28.00
2023-05-13T06:37:10.761Z,27.25
2023-05-13T06:38:13.166Z,27.00
2023-05-13T06:39:14.993Z,30.25
2023-05-13T06:40:17.379Z,28.00
2023-05-13T06:41:18.859Z,26.75
2023-05-13T06:42:21.224Z,28.25
2023-05-13T06:43:22.660Z,29.25
2023-05-13T06:44:25.042Z,27.50
2023-05-13T06:45:26.493Z,24.25
2023-05-13T06:46:29.264Z,22.50
2023-05-13T06:47:30.784Z,29.00
2023-05-13T06:48:34.533Z,26.00
2023-05-13T06:49:35.944Z,29.75
2023-05-13T06:50:38.604Z,27.25
2023-05-13T06:51:41.172Z,28.50
2023-05-13T06:52:42.600Z,28.00
2023-05-13T06:53:45.016Z,26.25
2023-05-13T06:54:46.410Z,28.25
2023-05-13T06:55:48.875Z,25.75
2023-05-13T06:56:50.405Z,34.00
2023-05-13T06:57:53.105Z,29.25
2023-05-13T06:58:54.586Z,27.25
2023-05-13T06:59:56.970Z,27.00
2023-05-13T07:00:58.476Z,29.00
2023-05-13T07:02:00.873Z,30.00
2023-05-13T07:03:03.571Z,30.75
2023-05-13T07:04:07.561Z,22.75
2023-05-13T07:05:11.065Z,25.00
2023-05-13T07:06:13.831Z,24.00
2023-05-13T07:07:15.341Z,23.00
2023-05-13T07:08:18.098Z,28.25
2023-05-13T07:09:19.962Z,30.25
2023-05-13T07:10:22.618Z,27.25
2023-05-13T07:11:24.456Z,30.50
2023-05-13T07:12:26.957Z,28.00
2023-05-13T07:13:29.353Z,28.50
2023-05-13T07:14:31.784Z,29.75
2023-05-13T07:15:33.190Z,29.50
2023-05-13T07:16:35.630Z,33.25
2023-05-13T07:17:37.213Z,28.50
2023-05-13T07:18:39.793Z,30.00
2023-05-13T07:19:42.567Z,30.25
2023-05-13T07:20:45.204Z,26.50
2023-05-13T07:21:46.614Z,24.25
2023-05-13T07:22:49.041Z,26.75
2023-05-13T07:23:50.596Z,26.50
2023-05-13T07:24:53.016Z,27.75
2023-05-13T07:25:54.427Z,29.00
2023-05-13T07:26:56.839Z,23.75
2023-05-13T07:27:58.265Z,26.75
2023-05-13T07:29:00.710Z,26.50
2023-05-13T07:30:02.207Z,27.25
2023-05-13T07:31:05.534Z,26.00
2023-05-13T07:32:07.234Z,24.00
2023-05-13T07:33:09.811Z,21.75
2023-05-13T07:34:11.250Z,23.50
2023-05-13T07:35:16.666Z,28.25
2023-05-13T07:36:18.088Z,22.00
2023-05-13T07:37:20.467Z,24.00
2023-05-13T07:38:23.290Z,23.00
2023-05-13T07:39:25.409Z,25.75
2023-05-13T07:40:27.790Z,25.50
2023-05-13T07:41:29.273Z,22.00
2023-05-13T07:42:31.770Z,28.75
2023-05-13T07:43:34.948Z,23.75
2023-05-13T07:44:37.371Z,22.75
2023-05-13T07:45:39.252Z,23.50
2023-05-13T07:46:41.746Z,23.75
2023-05-13T07:47:44.473Z,23.75
2023-05-13T07:48:47.102Z,22.50
2023-05-13T07:49:49.141Z,24.00
2023-05-13T07:50:53.100Z,24.50
2023-05-13T07:51:54.531Z,23.75
2023-05-13T07:52:57.325Z,27.00
2023-05-13T07:53:58.771Z,26.50
2023-05-13T07:55:01.160Z,24.50
2023-05-13T07:56:02.609Z,21.50
2023-05-13T07:57:04.991Z,22.50
2023-05-13T07:58:06.615Z,21.25
2023-05-13T07:59:09.054Z,24.25
2023-05-13T08:00:10.868Z,24.75
2023-05-13T08:01:13.274Z,20.75
2023-05-13T08:02:14.784Z,23.00
2023-05-13T08:03:17.340Z,22.00
2023-05-13T08:04:18.993Z,18.25
2023-05-13T08:05:21.825Z,20.75
2023-05-13T08:06:24.740Z,21.00
2023-05-13T08:07:27.157Z,21.00
2023-05-13T08:08:28.649Z,21.50
2023-05-13T08:09:31.031Z,20.75
2023-05-13T08:10:32.432Z,20.00
2023-05-13T08:11:34.924Z,18.00
2023-05-13T08:12:36.324Z,22.00
2023-05-13T08:13:39.417Z,21.50
2023-05-13T08:14:40.879Z,21.25
2023-05-13T08:15:43.632Z,22.00
2023-05-13T08:16:45.240Z,20.25
2023-05-13T08:17:47.773Z,19.50
2023-05-13T08:18:49.272Z,21.25
2023-05-13T08:19:51.790Z,23.00
2023-05-13T08:20:53.222Z,20.75
2023-05-13T08:21:57.004Z,18.50
2023-05-13T08:22:58.691Z,19.25
2023-05-13T08:24:01.394Z,17.50
2023-05-13T08:25:03.448Z,18.75
2023-05-13T08:26:05.951Z,16.25
2023-05-13T08:27:07.387Z,19.25
2023-05-13T08:28:09.953Z,16.00
2023-05-13T08:29:13.983Z,16.50
2023-05-13T08:30:16.660Z,17.50
2023-05-13T08:31:18.181Z,20.00
2023-05-13T08:32:20.746Z,19.00
2023-05-13T08:33:23.268Z,17.00
2023-05-13T08:34:24.750Z,17.50
2023-05-13T08:35:27.443Z,17.50
2023-05-13T08:36:28.877Z,16.50
2023-05-13T08:37:32.750Z,18.00
2023-05-13T08:38:34.583Z,16.75
2023-05-13T08:39:36.988Z,14.75
2023-05-13T08:40:38.508Z,17.25
2023-05-13T08:41:40.902Z,16.00
2023-05-13T08:42:42.560Z,15.75
2023-05-13T08:43:44.979Z,16.25
2023-05-13T08:44:46.400Z,14.00
2023-05-13T08:45:48.897Z,15.25
2023-05-13T08:46:50.919Z,14.00
2023-05-13T08:47:53.690Z,13.50
2023-05-13T08:48:56.977Z,15.50
2023-05-13T08:49:58.399Z,14.00
2023-05-13T08:51:02.008Z,14.00
2023-05-13T08:52:03.644Z,14.50
2023-05-13T08:53:07.409Z,12.75
2023-05-13T08:54:09.369Z,13.50
2023-05-13T08:55:11.815Z,12.50
2023-05-13T08:56:13.316Z,13.00
2023-05-13T08:57:15.889Z,11.75
2023-05-13T08:58:17.347Z,12.00
2023-05-13T08:59:19.788Z,13.00
2023-05-13T09:00:21.844Z,11.25
2023-05-13T09:01:26.502Z,12.50
2023-05-13T09:02:28.018Z,13.75
2023-05-13T09:03:30.402Z,13.50
2023-05-13T09:04:31.951Z,13.75
2023-05-13T09:05:36.874Z,13.50
2023-05-13T09:06:39.905Z,12.00
2023-05-13T09:07:42.399Z,14.00
2023-05-13T09:08:45.221Z,16.00
2023-05-13T09:09:47.619Z,13.00
2023-05-13T09:10:49.083Z,13.25
2023-05-13T09:11:51.493Z,14.50
2023-05-13T09:12:53.582Z,15.25
2023-05-13T09:13:59.533Z,15.00
2023-05-13T09:15:01.041Z,13.25
2023-05-13T09:16:03.569Z,16.25
2023-05-13T09:17:05.013Z,12.75
2023-05-13T09:18:07.667Z,15.00
2023-05-13T09:19:11.132Z,14.00
2023-05-13T09:20:14.110Z,13.50
2023-05-13T09:21:21.891Z,12.25
2023-05-13T09:22:24.281Z,14.00
2023-05-13T09:23:25.839Z,14.50
2023-05-13T09:24:29.606Z,13.25
2023-05-13T09:25:32.126Z,13.50
2023-05-13T09:26:33.570Z,16.25
2023-05-13T09:27:39.227Z,15.50
2023-05-13T09:28:41.645Z,14.75
2023-05-13T09:29:43.111Z,13.50
2023-05-13T09:30:46.896Z,14.50
2023-05-13T09:31:49.030Z,13.50
2023-05-13T09:33:05.161Z,13.00
2023-05-13T09:34:06.661Z,14.00
2023-05-13T09:35:09.512Z,15.00
2023-05-13T09:36:11.900Z,14.50
2023-05-13T09:37:15.258Z,14.00
2023-05-13T09:38:17.991Z,12.75
2023-05-13T09:39:19.472Z,13.50
2023-05-13T09:40:23.471Z,12.75
2023-05-13T09:41:26.774Z,15.00
2023-05-13T09:42:29.286Z,14.00
2023-05-13T09:43:32.438Z,13.50
2023-05-13T09:44:34.111Z,13.00
2023-05-13T09:45:36.861Z,14.25
2023-05-13T09:46:38.307Z,12.75
2023-05-13T09:47:40.991Z,13.75
2023-05-13T09:48:42.659Z,14.00
2023-05-13T09:49:46.100Z,12.25
2023-05-13T09:50:48.499Z,13.25
2023-05-13T09:51:50.952Z,12.75
2023-05-13T09:52:52.578Z,14.25
2023-05-13T09:53:55.630Z,13.75
2023-05-13T09:54:57.458Z,12.25
2023-05-13T09:56:01.859Z,12.00
2023-05-13T09:57:04.405Z,13.25
2023-05-13T09:58:12.793Z,13.50
2023-05-13T09:59:14.924Z,11.75
2023-05-13T10:00:28.766Z,14.25
2023-05-13T10:01:34.148Z,12.75
2023-05-13T10:02:36.745Z,11.50
2023-05-13T10:03:38.272Z,12.25
2023-05-13T10:04:41.164Z,11.50
2023-05-13T10:05:43.661Z,11.50
2023-05-13T10:06:45.191Z,11.00
2023-05-13T10:07:47.609Z,12.25
2023-05-13T10:08:49.046Z,12.00
2023-05-13T10:09:52.418Z,11.75
2023-05-13T10:10:54.660Z,11.25
2023-05-13T10:11:58.500Z,12.25
2023-05-13T10:13:00.069Z,12.25
2023-05-13T10:14:02.964Z,13.75
2023-05-13T10:15:05.056Z,11.50
2023-05-13T10:16:07.918Z,11.00
2023-05-13T10:17:09.551Z,12.25
2023-05-13T10:18:12.034Z,11.25
2023-05-13T10:19:13.609Z,11.75
2023-05-13T10:20:16.783Z,12.00
2023-05-13T10:21:18.344Z,11.00
2023-05-13T10:22:22.893Z,12.50
2023-05-13T10:23:25.314Z,12.25
2023-05-13T10:24:27.223Z,9.75
2023-05-13T10:25:29.696Z,12.50
2023-05-13T10:26:31.161Z,12.25
2023-05-13T10:27:34.941Z,10.25
2023-05-13T10:28:36.415Z,10.75
2023-05-13T10:29:38.852Z,12.00
2023-05-13T10:30:40.373Z,13.25
2023-05-13T10:31:42.851Z,12.00
2023-05-13T10:32:44.373Z,13.50
2023-05-13T10:33:46.848Z,11.75
2023-05-13T10:34:48.315Z,13.50
2023-05-13T10:35:53.433Z,11.50
2023-05-13T10:36:59.277Z,11.75
2023-05-13T10:38:02.842Z,12.00
2023-05-13T10:39:10.181Z,12.75
2023-05-13T10:40:26.372Z,11.00
2023-05-13T10:41:35.520Z,13.50
2023-05-13T10:42:40.196Z,13.25
2023-05-13T10:43:42.648Z,10.75
2023-05-13T10:44:44.253Z,12.50
2023-05-13T10:45:47.102Z,14.50
2023-05-13T10:46:48.695Z,13.00
2023-05-13T10:47:51.272Z,14.50
2023-05-13T10:48:55.719Z,12.25
2023-05-13T10:49:58.492Z,11.00
2023-05-13T10:51:01.145Z,14.00
2023-05-13T10:52:06.897Z,13.75
2023-05-13T10:53:09.996Z,11.50
2023-05-13T10:54:18.728Z,13.50
2023-05-13T10:55:20.346Z,14.25
2023-05-13T10:56:23.143Z,14.25
2023-05-13T10:57:27.374Z,12.75
2023-05-13T10:58:31.398Z,14.50
2023-05-13T10:59:34.795Z,13.50
2023-05-13T11:00:37.281Z,11.00
2023-05-13T11:01:43.447Z,12.25
2023-05-13T11:02:45.316Z,12.75
2023-05-13T11:03:52.154Z,13.25
2023-05-13T11:04:59.916Z,12.00
2023-05-13T11:06:05.475Z,11.00
2023-05-13T11:07:14.034Z,11.50
2023-05-13T11:08:31.377Z,12.75
2023-05-13T11:09:33.777Z,12.00
2023-05-13T11:10:35.302Z,11.25
2023-05-13T11:11:37.698Z,13.75
2023-05-13T11:12:39.105Z,13.00
2023-05-13T11:13:42.991Z,12.00
2023-05-13T11:14:44.668Z,13.75
2023-05-13T11:15:47.193Z,14.50
2023-05-13T11:16:49.150Z,12.00
2023-05-13T11:17:53.492Z,11.75
2023-05-13T11:18:55.060Z,12.75
2023-05-13T11:19:58.136Z,11.00
2023-05-13T11:21:03.781Z,12.00
2023-05-13T11:22:10.095Z,12.25
2023-05-13T11:23:16.376Z,9.00
2023-05-13T11:24:18.927Z,11.00
2023-05-13T11:25:20.706Z,11.75
2023-05-13T11:26:23.142Z,9.50
2023-05-13T11:27:25.603Z,9.00
2023-05-13T11:28:41.954Z,9.00
2023-05-13T11:29:50.552Z,11.00
2023-05-13T11:30:55.749Z,10.50
2023-05-13T11:32:00.272Z,10.00
2023-05-13T11:33:05.408Z,11.75
2023-05-13T11:34:09.537Z,11.25
2023-05-13T11:35:12.016Z,13.00
2023-05-13T11:36:13.561Z,12.00
2023-05-13T11:37:15.934Z,12.00
2023-05-13T11:38:21.693Z,11.00
2023-05-13T11:39:26.426Z,13.25
2023-05-13T11:40:28.236Z,12.75
2023-05-13T11:41:31.909Z,12.75
2023-05-13T11:42:34.354Z,12.00
2023-05-13T11:43:35.758Z,12.25
2023-05-13T11:44:39.016Z,13.00
2023-05-13T11:45:42.258Z,11.25
2023-05-13T11:46:51.190Z,11.75
2023-05-13T11:47:52.789Z,11.00
2023-05-13T11:48:55.493Z,11.00
2023-05-13T11:49:59.062Z,12.00
2023-05-13T11:51:00.620Z,12.00
2023-05-13T11:52:03.451Z,12.50
2023-05-13T11:53:05.086Z,14.00
2023-05-13T11:54:07.495Z,12.25
2023-05-13T11:55:09.058Z,12.25
2023-05-13T11:56:12.758Z,12.25
2023-05-13T11:57:14.680Z,11.50
2023-05-13T11:58:17.294Z,12.00
2023-05-13T11:59:18.811Z,16.25
2023-05-13T12:00:25.910Z,12.75
2023-05-13T12:01:28.777Z,15.00
2023-05-13T12:02:31.704Z,13.50
2023-05-13T12:03:33.674Z,13.75
2023-05-13T12:04:36.296Z,12.75
2023-05-13T12:05:38.198Z,11.75
2023-05-13T12:06:46.759Z,13.50
2023-05-13T12:07:48.576Z,11.50
2023-05-13T12:08:50.968Z,12.00
2023-05-13T12:09:52.968Z,12.00
2023-05-13T12:10:55.409Z,10.75
2023-05-13T12:11:56.880Z,9.00
2023-05-13T12:12:59.317Z,10.00
2023-05-13T12:14:00.819Z,8.75
2023-05-13T12:15:03.697Z,10.25
2023-05-13T12:16:05.293Z,9.00
2023-05-13T12:17:09.160Z,8.75
2023-05-13T12:18:10.664Z,8.25
2023-05-13T12:19:13.293Z,8.75
2023-05-13T12:20:16.163Z,8.75
2023-05-13T12:21:17.685Z,8.50
2023-05-13T12:22:22.423Z,7.75
2023-05-13T12:23:23.816Z,8.00
2023-05-13T12:24:26.234Z,8.00
2023-05-13T12:25:36.718Z,8.25
2023-05-13T12:26:39.190Z,7.50
2023-05-13T12:27:40.629Z,9.00
2023-05-13T12:28:43.047Z,8.00
2023-05-13T12:29:44.458Z,8.50
2023-05-13T12:30:51.212Z,11.25
2023-05-13T12:32:12.369Z,8.50
2023-05-13T12:33:16.023Z,8.00
2023-05-13T12:34:30.754Z,9.00
2023-05-13T12:35:32.206Z,8.00
2023-05-13T12:36:37.284Z,9.25
2023-05-13T12:37:38.906Z,9.50
2023-05-13T12:38:41.415Z,9.00
2023-05-13T12:39:43.856Z,9.00
2023-05-13T12:40:45.535Z,9.25
2023-05-13T12:41:51.988Z,12.75
2023-05-13T12:42:56.676Z,12.00
2023-05-13T12:43:59.578Z,12.00
2023-05-13T12:45:02.196Z,11.00
2023-05-13T12:46:04.186Z,12.75
2023-05-13T12:47:08.027Z,10.50
2023-05-13T12:48:09.637Z,9.00
2023-05-13T12:49:13.440Z,13.00
2023-05-13T12:50:15.685Z,15.00
2023-05-13T12:51:18.100Z,14.50
2023-05-13T12:52:19.584Z,11.75
2023-05-13T12:53:21.972Z,9.75
2023-05-13T12:54:23.391Z,10.00
2023-05-13T12:55:27.229Z,10.75
2023-05-13T12:56:29.649Z,11.25
2023-05-13T12:57:32.346Z,12.75
2023-05-13T12:58:34.933Z,12.75
2023-05-13T12:59:36.336Z,10.00
2023-05-13T13:00:38.960Z,9.50
2023-05-13T13:01:40.622Z,9.50
2023-05-13T13:02:43.172Z,10.50
2023-05-13T13:03:45.789Z,11.50
2023-05-13T13:04:48.706Z,11.00
2023-05-13T13:05:51.615Z,10.50
2023-05-13T13:06:53.075Z,11.75
2023-05-13T13:07:55.575Z,9.75
2023-05-13T13:08:57.014Z,10.00
2023-05-13T13:09:59.405Z,9.75
2023-05-13T13:11:01.175Z,12.00
2023-05-13T13:12:03.586Z,9.75
2023-05-13T13:13:05.043Z,11.25
2023-05-13T13:14:08.277Z,10.75
2023-05-13T13:15:10.414Z,11.50
2023-05-13T13:16:13.007Z,9.50
2023-05-13T13:17:14.447Z,12.00
2023-05-13T13:18:16.850Z,12.50
2023-05-13T13:19:18.284Z,11.00
2023-05-13T13:20:22.333Z,13.00
2023-05-13T13:21:23.768Z,12.75
2023-05-13T13:22:26.771Z,12.00
2023-05-13T13:23:29.183Z,12.75
2023-05-13T13:24:30.594Z,11.50
2023-05-13T13:25:33.040Z,13.00
2023-05-13T13:26:34.476Z,12.00
2023-05-13T13:27:36.878Z,11.50
2023-05-13T13:28:38.308Z,9.75